sensor_id;sensor_type;location;lat;lon;timestamp;P1;durP1;ratioP1;P2;durP2;ratioP2
36303;SDS011;22335;49.800;8.596;2023-02-18T00:03:02;8.30;;;7.60;;
36303;SDS011;22335;49.800;8.596;2023-02-18T00:09:45;7.47;;;6.97;;
36303;SDS011;22335;49.800;8.596;2023-02-18T00:16:30;8.73;;;8.02;;
36303;SDS011;22335;49.800;8.596;2023-02-18T00:23:15;8.95;;;8.20;;
36303;SDS011;22335;49.800;8.596;2023-02-18T00:29:59;9.50;;;8.70;;
36303;SDS011;22335;49.800;8.596;2023-02-18T00:36:44;10.07;;;9.18;;
36303;SDS011;22335;49.800;8.596;2023-02-18T00:43:29;10.70;;;9.80;;
36303;SDS011;22335;49.800;8.596;2023-02-18T00:50:13;10.77;;;9.75;;
36303;SDS011;22335;49.800;8.596;2023-02-18T00:56:56;11.30;;;10.30;;
36303;SDS011;22335;49.800;8.596;2023-02-18T01:03:43;12.40;;;11.15;;
36303;SDS011;22335;49.800;8.596;2023-02-18T01:10:27;11.10;;;10.30;;
36303;SDS011;22335;49.800;8.596;2023-02-18T01:17:11;11.82;;;11.02;;
36303;SDS011;22335;49.800;8.596;2023-02-18T01:23:56;11.65;;;10.82;;
36303;SDS011;22335;49.800;8.596;2023-02-18T01:30:41;11.05;;;10.25;;
36303;SDS011;22335;49.800;8.596;2023-02-18T01:37:24;10.77;;;9.90;;
36303;SDS011;22335;49.800;8.596;2023-02-18T01:44:16;10.40;;;9.60;;
36303;SDS011;22335;49.800;8.596;2023-02-18T01:51:03;10.00;;;9.30;;
36303;SDS011;22335;49.800;8.596;2023-02-18T01:57:54;10.48;;;9.57;;
36303;SDS011;22335;49.800;8.596;2023-02-18T02:04:39;10.50;;;9.70;;
36303;SDS011;22335;49.800;8.596;2023-02-18T02:11:26;10.55;;;9.80;;
36303;SDS011;22335;49.800;8.596;2023-02-18T02:18:32;11.48;;;10.52;;
36303;SDS011;22335;49.800;8.596;2023-02-18T02:25:34;12.45;;;11.35;;
36303;SDS011;22335;49.800;8.596;2023-02-18T02:40:27;12.45;;;11.35;;
36303;SDS011;22335;49.800;8.596;2023-02-18T02:47:26;13.10;;;12.10;;
36303;SDS011;22335;49.800;8.596;2023-02-18T02:54:17;12.60;;;11.60;;
36303;SDS011;22335;49.800;8.596;2023-02-18T03:01:09;11.77;;;10.80;;
36303;SDS011;22335;49.800;8.596;2023-02-18T03:08:04;11.15;;;10.35;;
36303;SDS011;22335;49.800;8.596;2023-02-18T03:15:07;10.90;;;10.07;;
36303;SDS011;22335;49.800;8.596;2023-02-18T03:22:01;12.07;;;11.18;;
36303;SDS011;22335;49.800;8.596;2023-02-18T03:28:52;11.55;;;10.55;;
36303;SDS011;22335;49.800;8.596;2023-02-18T03:35:39;11.20;;;10.20;;
36303;SDS011;22335;49.800;8.596;2023-02-18T03:42:27;13.05;;;11.80;;
36303;SDS011;22335;49.800;8.596;2023-02-18T04:04:15;12.35;;;11.35;;
36303;SDS011;22335;49.800;8.596;2023-02-18T04:10:59;12.57;;;11.48;;
36303;SDS011;22335;49.800;8.596;2023-02-18T04:17:42;13.02;;;11.93;;
36303;SDS011;22335;49.800;8.596;2023-02-18T04:24:27;13.65;;;12.52;;
36303;SDS011;22335;49.800;8.596;2023-02-18T04:31:11;12.20;;;11.10;;
36303;SDS011;22335;49.800;8.596;2023-02-18T04:37:55;11.68;;;10.63;;
36303;SDS011;22335;49.800;8.596;2023-02-18T04:44:40;12.88;;;11.77;;
36303;SDS011;22335;49.800;8.596;2023-02-18T04:51:24;10.93;;;10.10;;
36303;SDS011;22335;49.800;8.596;2023-02-18T04:58:07;9.93;;;9.23;;
36303;SDS011;22335;49.800;8.596;2023-02-18T05:04:52;9.48;;;8.77;;
36303;SDS011;22335;49.800;8.596;2023-02-18T05:11:36;9.60;;;8.90;;
36303;SDS011;22335;49.800;8.596;2023-02-18T05:18:20;9.98;;;9.07;;
36303;SDS011;22335;49.800;8.596;2023-02-18T05:25:05;10.93;;;9.98;;
36303;SDS011;22335;49.800;8.596;2023-02-18T05:31:49;12.93;;;11.73;;
36303;SDS011;22335;49.800;8.596;2023-02-18T05:38:33;13.48;;;12.38;;
36303;SDS011;22335;49.800;8.596;2023-02-18T05:45:18;12.43;;;11.35;;
36303;SDS011;22335;49.800;8.596;2023-02-18T05:52:01;12.38;;;11.18;;
36303;SDS011;22335;49.800;8.596;2023-02-18T05:58:46;10.77;;;9.98;;
36303;SDS011;22335;49.800;8.596;2023-02-18T06:05:31;9.15;;;8.45;;
36303;SDS011;22335;49.800;8.596;2023-02-18T06:12:14;9.13;;;8.43;;
36303;SDS011;22335;49.800;8.596;2023-02-18T06:18:58;9.50;;;8.70;;
36303;SDS011;22335;49.800;8.596;2023-02-18T06:25:43;8.93;;;8.23;;
36303;SDS011;22335;49.800;8.596;2023-02-18T06:32:27;10.25;;;9.50;;
36303;SDS011;22335;49.800;8.596;2023-02-18T06:39:10;10.65;;;9.85;;
36303;SDS011;22335;49.800;8.596;2023-02-18T06:45:55;10.25;;;9.27;;
36303;SDS011;22335;49.800;8.596;2023-02-18T06:52:38;10.48;;;9.57;;
36303;SDS011;22335;49.800;8.596;2023-02-18T06:59:22;10.88;;;9.98;;
36303;SDS011;22335;49.800;8.596;2023-02-18T07:06:07;10.90;;;9.75;;
36303;SDS011;22335;49.800;8.596;2023-02-18T07:12:51;11.47;;;10.57;;
36303;SDS011;22335;49.800;8.596;2023-02-18T07:19:35;11.55;;;10.73;;
36303;SDS011;22335;49.800;8.596;2023-02-18T07:26:19;12.48;;;11.43;;
36303;SDS011;22335;49.800;8.596;2023-02-18T07:33:03;11.45;;;10.50;;
36303;SDS011;22335;49.800;8.596;2023-02-18T07:39:47;12.48;;;11.48;;
36303;SDS011;22335;49.800;8.596;2023-02-18T07:46:32;12.73;;;11.70;;
36303;SDS011;22335;49.800;8.596;2023-02-18T07:53:16;15.25;;;13.98;;
36303;SDS011;22335;49.800;8.596;2023-02-18T07:59:59;15.02;;;13.68;;
36303;SDS011;22335;49.800;8.596;2023-02-18T08:06:54;14.30;;;13.10;;
36303;SDS011;22335;49.800;8.596;2023-02-18T08:13:39;13.05;;;11.95;;
36303;SDS011;22335;49.800;8.596;2023-02-18T08:20:22;12.80;;;11.57;;
36303;SDS011;22335;49.800;8.596;2023-02-18T08:27:07;13.27;;;11.98;;
36303;SDS011;22335;49.800;8.596;2023-02-18T08:33:50;10.10;;;9.10;;
36303;SDS011;22335;49.800;8.596;2023-02-18T08:40:34;8.23;;;7.53;;
36303;SDS011;22335;49.800;8.596;2023-02-18T08:47:20;7.32;;;6.65;;
36303;SDS011;22335;49.800;8.596;2023-02-18T08:54:03;7.18;;;6.47;;
36303;SDS011;22335;49.800;8.596;2023-02-18T09:00:47;7.68;;;7.07;;
36303;SDS011;22335;49.800;8.596;2023-02-18T09:07:32;7.35;;;6.78;;
36303;SDS011;22335;49.800;8.596;2023-02-18T09:14:16;6.32;;;5.82;;
36303;SDS011;22335;49.800;8.596;2023-02-18T09:20:59;6.40;;;5.45;;
36303;SDS011;22335;49.800;8.596;2023-02-18T09:27:45;6.15;;;5.55;;
36303;SDS011;22335;49.800;8.596;2023-02-18T13:52:49;5.50;;;5.00;;
36303;SDS011;22335;49.800;8.596;2023-02-18T13:59:41;6.25;;;5.75;;
36303;SDS011;22335;49.800;8.596;2023-02-18T14:06:31;5.22;;;4.82;;
36303;SDS011;22335;49.800;8.596;2023-02-18T14:13:20;5.50;;;5.00;;
36303;SDS011;22335;49.800;8.596;2023-02-18T14:20:26;5.00;;;4.60;;
36303;SDS011;22335;49.800;8.596;2023-02-18T14:27:26;5.85;;;5.18;;
36303;SDS011;22335;49.800;8.596;2023-02-18T14:34:19;5.20;;;4.80;;
36303;SDS011;22335;49.800;8.596;2023-02-18T14:41:40;5.00;;;4.40;;
36303;SDS011;22335;49.800;8.596;2023-02-18T14:48:45;5.25;;;4.82;;
36303;SDS011;22335;49.800;8.596;2023-02-18T14:55:48;3.58;;;3.28;;
36303;SDS011;22335;49.800;8.596;2023-02-18T15:02:35;3.78;;;3.30;;
36303;SDS011;22335;49.800;8.596;2023-02-18T15:09:21;4.20;;;3.80;;
36303;SDS011;22335;49.800;8.596;2023-02-18T15:16:05;4.20;;;3.90;;
36303;SDS011;22335;49.800;8.596;2023-02-18T15:22:51;4.72;;;4.32;;
36303;SDS011;22335;49.800;8.596;2023-02-18T15:29:36;5.03;;;4.63;;
36303;SDS011;22335;49.800;8.596;2023-02-18T15:36:20;4.97;;;4.67;;
36303;SDS011;22335;49.800;8.596;2023-02-18T15:43:06;5.67;;;5.30;;
36303;SDS011;22335;49.800;8.596;2023-02-18T15:49:54;5.40;;;5.00;;
36303;SDS011;22335;49.800;8.596;2023-02-18T15:56:42;6.30;;;5.13;;
36303;SDS011;22335;49.800;8.596;2023-02-18T16:03:28;5.63;;;5.13;;
36303;SDS011;22335;49.800;8.596;2023-02-18T16:10:17;5.57;;;5.13;;
36303;SDS011;22335;49.800;8.596;2023-02-18T16:17:08;5.45;;;5.15;;
36303;SDS011;22335;49.800;8.596;2023-02-18T16:23:58;6.75;;;5.28;;
36303;SDS011;22335;49.800;8.596;2023-02-18T16:30:44;5.40;;;5.10;;
36303;SDS011;22335;49.800;8.596;2023-02-18T16:37:27;7.18;;;4.80;;
36303;SDS011;22335;49.800;8.596;2023-02-18T16:44:19;4.68;;;4.38;;
36303;SDS011;22335;49.800;8.596;2023-02-18T16:51:05;5.60;;;4.40;;
36303;SDS011;22335;49.800;8.596;2023-02-18T16:57:52;5.22;;;4.40;;
36303;SDS011;22335;49.800;8.596;2023-02-18T17:04:36;4.82;;;4.43;;
36303;SDS011;22335;49.800;8.596;2023-02-18T17:11:22;4.72;;;4.32;;
36303;SDS011;22335;49.800;8.596;2023-02-18T17:18:10;4.68;;;4.30;;
36303;SDS011;22335;49.800;8.596;2023-02-18T17:24:54;4.70;;;4.40;;
36303;SDS011;22335;49.800;8.596;2023-02-18T17:31:39;5.28;;;4.82;;
36303;SDS011;22335;49.800;8.596;2023-02-18T17:38:27;5.70;;;5.20;;
36303;SDS011;22335;49.800;8.596;2023-02-18T17:45:16;6.22;;;5.82;;
36303;SDS011;22335;49.800;8.596;2023-02-18T17:52:06;7.00;;;6.50;;
36303;SDS011;22335;49.800;8.596;2023-02-18T17:58:57;6.15;;;5.55;;
36303;SDS011;22335;49.800;8.596;2023-02-18T18:05:42;6.47;;;5.88;;
36303;SDS011;22335;49.800;8.596;2023-02-18T18:12:30;10.02;;;7.57;;
36303;SDS011;22335;49.800;8.596;2023-02-18T18:19:14;8.13;;;7.30;;
36303;SDS011;22335;49.800;8.596;2023-02-18T18:25:57;8.50;;;7.22;;
36303;SDS011;22335;49.800;8.596;2023-02-18T18:32:43;8.40;;;7.30;;
36303;SDS011;22335;49.800;8.596;2023-02-18T18:39:26;7.78;;;6.97;;
36303;SDS011;22335;49.800;8.596;2023-02-18T18:46:10;8.27;;;7.07;;
36303;SDS011;22335;49.800;8.596;2023-02-18T18:52:55;7.75;;;6.97;;
36303;SDS011;22335;49.800;8.596;2023-02-18T18:59:38;7.20;;;6.50;;
36303;SDS011;22335;49.800;8.596;2023-02-18T19:06:22;7.40;;;6.43;;
36303;SDS011;22335;49.800;8.596;2023-02-18T19:13:07;8.07;;;7.28;;
36303;SDS011;22335;49.800;8.596;2023-02-18T19:19:54;8.48;;;7.78;;
36303;SDS011;22335;49.800;8.596;2023-02-18T19:26:38;9.10;;;7.65;;
36303;SDS011;22335;49.800;8.596;2023-02-18T19:33:23;8.55;;;7.75;;
36303;SDS011;22335;49.800;8.596;2023-02-18T19:40:09;8.88;;;8.18;;
36303;SDS011;22335;49.800;8.596;2023-02-18T19:46:58;9.65;;;8.75;;
36303;SDS011;22335;49.800;8.596;2023-02-18T19:53:44;10.35;;;9.45;;
36303;SDS011;22335;49.800;8.596;2023-02-18T20:00:28;12.18;;;11.05;;
36303;SDS011;22335;49.800;8.596;2023-02-18T20:07:12;13.10;;;11.90;;
36303;SDS011;22335;49.800;8.596;2023-02-18T20:13:57;12.95;;;11.82;;
36303;SDS011;22335;49.800;8.596;2023-02-18T20:20:45;12.48;;;11.38;;
36303;SDS011;22335;49.800;8.596;2023-02-18T20:27:30;12.30;;;11.10;;
36303;SDS011;22335;49.800;8.596;2023-02-18T20:34:20;12.95;;;11.85;;
36303;SDS011;22335;49.800;8.596;2023-02-18T20:41:04;13.38;;;12.15;;
36303;SDS011;22335;49.800;8.596;2023-02-18T20:47:48;13.13;;;12.00;;
36303;SDS011;22335;49.800;8.596;2023-02-18T20:54:33;14.93;;;13.48;;
36303;SDS011;22335;49.800;8.596;2023-02-18T21:01:17;13.13;;;12.13;;
36303;SDS011;22335;49.800;8.596;2023-02-18T21:08:01;13.07;;;11.82;;
36303;SDS011;22335;49.800;8.596;2023-02-18T21:14:46;28.08;;;24.20;;
36303;SDS011;22335;49.800;8.596;2023-02-18T21:21:31;18.60;;;17.10;;
36303;SDS011;22335;49.800;8.596;2023-02-18T21:28:14;11.68;;;10.80;;
36303;SDS011;22335;49.800;8.596;2023-02-18T21:34:59;11.77;;;10.77;;
36303;SDS011;22335;49.800;8.596;2023-02-18T21:41:42;14.13;;;12.80;;
36303;SDS011;22335;49.800;8.596;2023-02-18T21:48:32;18.00;;;16.08;;
36303;SDS011;22335;49.800;8.596;2023-02-18T21:55:34;12.88;;;11.57;;
36303;SDS011;22335;49.800;8.596;2023-02-18T22:02:19;11.88;;;10.85;;
36303;SDS011;22335;49.800;8.596;2023-02-18T22:09:04;12.77;;;11.60;;
36303;SDS011;22335;49.800;8.596;2023-02-18T22:15:56;12.60;;;11.50;;
36303;SDS011;22335;49.800;8.596;2023-02-18T22:23:05;12.05;;;11.13;;
36303;SDS011;22335;49.800;8.596;2023-02-18T22:29:48;11.32;;;10.23;;
36303;SDS011;22335;49.800;8.596;2023-02-18T22:36:33;16.85;;;14.65;;
36303;SDS011;22335;49.800;8.596;2023-02-18T22:43:17;12.45;;;11.27;;
36303;SDS011;22335;49.800;8.596;2023-02-18T22:50:01;10.75;;;9.85;;
36303;SDS011;22335;49.800;8.596;2023-02-18T22:56:46;10.88;;;9.82;;
36303;SDS011;22335;49.800;8.596;2023-02-18T23:03:30;10.35;;;9.55;;
36303;SDS011;22335;49.800;8.596;2023-02-18T23:10:14;10.80;;;9.80;;
36303;SDS011;22335;49.800;8.596;2023-02-18T23:17:00;11.43;;;10.43;;
36303;SDS011;22335;49.800;8.596;2023-02-18T23:23:54;11.60;;;10.60;;
36303;SDS011;22335;49.800;8.596;2023-02-18T23:30:38;11.45;;;10.30;;
36303;SDS011;22335;49.800;8.596;2023-02-18T23:37:24;10.75;;;9.77;;
36303;SDS011;22335;49.800;8.596;2023-02-18T23:44:24;10.10;;;9.30;;
36303;SDS011;22335;49.800;8.596;2023-02-18T23:51:09;10.45;;;9.65;;
36303;SDS011;22335;49.800;8.596;2023-02-18T23:57:57;10.63;;;9.82;;
